createdAt,value
2023-05-16T00:02:01.154Z,16.50
2023-05-16T00:04:28.212Z,15.80
2023-05-16T00:06:55.132Z,16.20
2023-05-16T00:09:22.372Z,17.00
2023-05-16T00:11:50.270Z,16.90
2023-05-16T00:14:17.267Z,18.60
2023-05-16T00:16:44.239Z,20.30
2023-05-16T00:19:11.509Z,20.00
2023-05-16T00:21:38.478Z,19.60
2023-05-16T00:24:05.724Z,18.30
2023-05-16T00:26:32.548Z,19.70
2023-05-16T00:28:59.456Z,19.70
2023-05-16T00:31:26.394Z,22.00
2023-05-16T00:33:53.431Z,23.10
2023-05-16T00:36:22.216Z,23.40
2023-05-16T00:38:50.887Z,21.90
2023-05-16T00:41:17.770Z,20.80
2023-05-16T00:43:45.242Z,22.70
2023-05-16T00:46:12.390Z,22.50
2023-05-16T00:48:39.342Z,21.90
2023-05-16T00:51:09.553Z,19.50
2023-05-16T00:53:37.217Z,17.90
2023-05-16T00:56:04.164Z,15.90
2023-05-16T00:58:32.373Z,15.00
2023-05-16T01:00:59.349Z,16.20
2023-05-16T01:03:27.355Z,15.30
2023-05-16T01:05:54.368Z,16.80
2023-05-16T01:08:21.857Z,15.90
2023-05-16T01:11:01.142Z,15.20
2023-05-16T01:13:34.105Z,16.20
2023-05-16T01:16:04.908Z,17.50
2023-05-16T01:18:37.931Z,17.00
2023-05-16T01:21:08.481Z,17.60
2023-05-16T01:24:01.764Z,17.30
2023-05-16T01:26:28.733Z,16.20
2023-05-16T01:28:55.810Z,14.50
2023-05-16T01:31:22.821Z,16.50
2023-05-16T01:33:51.393Z,17.00
2023-05-16T01:36:18.288Z,16.50
2023-05-16T01:38:46.311Z,16.90
2023-05-16T01:41:16.338Z,19.00
2023-05-16T01:43:43.850Z,17.60
2023-05-16T01:46:23.455Z,17.50
2023-05-16T01:48:53.356Z,17.70
2023-05-16T01:51:23.247Z,18.30
2023-05-16T01:53:50.100Z,17.60
2023-05-16T01:56:16.978Z,17.70
2023-05-16T01:58:43.887Z,17.10
2023-05-16T02:01:11.785Z,15.60
2023-05-16T02:03:38.696Z,13.50
2023-05-16T02:06:07.514Z,13.80
2023-05-16T02:08:34.421Z,14.70
2023-05-16T02:11:01.230Z,12.70
2023-05-16T02:13:28.136Z,12.70
2023-05-16T02:15:55.049Z,12.80
2023-05-16T02:18:23.781Z,11.80
2023-05-16T02:20:50.884Z,11.90
2023-05-16T02:23:17.835Z,11.40
2023-05-16T02:25:44.898Z,10.40
2023-05-16T02:28:11.826Z,10.50
2023-05-16T02:30:38.707Z,11.40
2023-05-16T02:33:05.547Z,11.00
2023-05-16T02:35:32.480Z,8.40
2023-05-16T02:38:00.328Z,9.20
2023-05-16T02:40:27.192Z,9.40
2023-05-16T02:42:54.065Z,8.40
2023-05-16T02:45:21.240Z,9.00
2023-05-16T02:47:48.171Z,7.80
2023-05-16T02:50:15.111Z,8.60
2023-05-16T02:52:41.971Z,9.10
2023-05-16T02:55:21.659Z,9.00
2023-05-16T02:57:50.829Z,8.40
2023-05-16T03:00:18.850Z,8.10
2023-05-16T03:02:46.164Z,8.00
2023-05-16T03:05:13.200Z,9.00
2023-05-16T03:07:40.234Z,8.70
2023-05-16T03:10:07.417Z,7.80
2023-05-16T03:12:34.356Z,8.20
2023-05-16T03:15:02.003Z,7.30
2023-05-16T03:17:29.540Z,7.20
2023-05-16T03:19:57.472Z,7.30
2023-05-16T03:22:24.319Z,6.90
2023-05-16T03:24:51.206Z,7.30
2023-05-16T03:27:18.180Z,7.40
2023-05-16T03:29:45.032Z,7.80
2023-05-16T03:32:11.993Z,7.00
2023-05-16T03:34:39.004Z,6.80
2023-05-16T03:37:06.610Z,6.40
2023-05-16T03:39:33.728Z,6.90
2023-05-16T03:42:00.666Z,7.00
2023-05-16T03:44:27.509Z,7.00
2023-05-16T03:46:56.056Z,6.80
2023-05-16T03:49:25.166Z,6.70
2023-05-16T03:51:52.048Z,6.70
2023-05-16T03:54:18.932Z,6.10
2023-05-16T03:56:45.840Z,6.20
2023-05-16T03:59:13.192Z,6.80
2023-05-16T04:01:40.225Z,6.80
2023-05-16T04:04:07.333Z,6.00
2023-05-16T04:06:34.481Z,6.00
2023-05-16T04:09:01.351Z,5.30
2023-05-16T04:11:28.683Z,4.90
2023-05-16T04:13:55.819Z,5.00
2023-05-16T04:16:22.785Z,5.00
2023-05-16T04:18:49.761Z,5.30
2023-05-16T04:21:16.683Z,4.70
2023-05-16T04:23:43.551Z,4.80
2023-05-16T04:26:10.514Z,4.70
2023-05-16T04:28:37.396Z,4.80
2023-05-16T04:31:04.334Z,4.80
2023-05-16T04:33:31.332Z,4.50
2023-05-16T04:35:58.860Z,4.70
2023-05-16T04:38:26.093Z,4.80
2023-05-16T04:40:53.079Z,4.60
2023-05-16T04:43:20.052Z,5.00
2023-05-16T04:45:47.242Z,4.70
2023-05-16T04:48:14.152Z,4.60
2023-05-16T04:50:41.294Z,5.10
2023-05-16T04:53:08.194Z,4.70
2023-05-16T04:55:35.129Z,4.70
2023-05-16T04:58:02.025Z,5.20
2023-05-16T05:00:29.057Z,5.20
2023-05-16T05:02:56.454Z,5.40
2023-05-16T05:05:23.566Z,5.60
2023-05-16T05:07:50.709Z,5.20
2023-05-16T05:10:17.736Z,4.80
2023-05-16T05:12:44.587Z,4.80
2023-05-16T05:15:11.456Z,5.60
2023-05-16T05:17:38.467Z,5.20
2023-05-16T05:20:10.687Z,5.10
2023-05-16T05:22:37.725Z,5.30
2023-05-16T05:25:05.478Z,5.70
2023-05-16T05:27:32.345Z,5.50
2023-05-16T05:29:59.270Z,5.20
2023-05-16T05:32:26.560Z,4.90
2023-05-16T05:34:53.419Z,5.50
2023-05-16T05:37:20.323Z,5.00
2023-05-16T05:39:47.245Z,5.20
2023-05-16T05:42:14.156Z,5.10
2023-05-16T05:44:41.114Z,5.40
2023-05-16T05:47:08.043Z,4.90
2023-05-16T05:49:36.030Z,5.30
2023-05-16T05:52:03.012Z,5.20
2023-05-16T05:54:30.388Z,4.80
2023-05-16T05:56:57.609Z,4.80
2023-05-16T05:59:24.795Z,5.60
2023-05-16T06:01:54.756Z,5.00
2023-05-16T06:04:21.773Z,4.90
2023-05-16T06:06:48.674Z,5.40
2023-05-16T06:09:15.780Z,4.80
2023-05-16T06:11:43.491Z,4.50
2023-05-16T06:14:10.444Z,5.90
2023-05-16T06:16:37.432Z,4.60
2023-05-16T06:19:04.457Z,4.50
2023-05-16T06:21:31.498Z,4.30
2023-05-16T06:23:58.376Z,4.90
2023-05-16T06:26:25.236Z,4.60
2023-05-16T06:28:52.194Z,4.90
2023-05-16T06:31:19.188Z,3.90
2023-05-16T06:33:46.129Z,4.70
2023-05-16T06:36:13.061Z,4.40
2023-05-16T06:38:39.926Z,5.10
2023-05-16T06:41:06.785Z,6.90
2023-05-16T06:43:33.718Z,5.20
2023-05-16T06:46:00.768Z,31.90
2023-05-16T06:48:27.769Z,5.40
2023-05-16T06:50:54.745Z,17.10
2023-05-16T06:53:21.713Z,8.00
2023-05-16T06:55:48.686Z,13.80
2023-05-16T06:58:17.868Z,4.70
2023-05-16T07:00:45.032Z,3.90
2023-05-16T07:03:12.033Z,4.20
2023-05-16T07:05:39.187Z,16.60
2023-05-16T07:08:07.904Z,15.50
2023-05-16T07:10:35.017Z,5.10
2023-05-16T07:13:02.077Z,4.20
2023-05-16T07:15:29.249Z,5.70
2023-05-16T07:17:57.216Z,4.90
2023-05-16T07:20:24.346Z,4.60
2023-05-16T07:22:51.328Z,4.20
2023-05-16T07:25:18.652Z,5.00
2023-05-16T07:27:45.598Z,3.90
2023-05-16T07:30:13.146Z,3.80
2023-05-16T07:32:40.367Z,5.80
2023-05-16T07:35:07.681Z,11.70
2023-05-16T07:37:34.762Z,14.90
2023-05-16T07:40:01.747Z,28.60
2023-05-16T07:42:28.673Z,33.40
2023-05-16T07:44:55.792Z,4.60
2023-05-16T07:47:22.780Z,3.90
2023-05-16T07:49:49.839Z,3.70
2023-05-16T07:52:16.791Z,3.00
2023-05-16T07:54:43.691Z,2.90
2023-05-16T07:57:14.363Z,3.10
2023-05-16T07:59:41.401Z,3.50
2023-05-16T08:02:08.518Z,2.80
2023-05-16T08:04:35.594Z,3.00
2023-05-16T08:07:02.524Z,2.80
2023-05-16T08:09:29.489Z,2.80
2023-05-16T08:11:56.736Z,2.90
2023-05-16T08:14:24.015Z,3.20
2023-05-16T08:16:51.182Z,3.20
2023-05-16T08:19:18.206Z,3.00
2023-05-16T08:21:45.149Z,2.70
2023-05-16T08:24:12.315Z,2.90
2023-05-16T08:26:39.351Z,3.00
2023-05-16T08:29:06.508Z,2.80
2023-05-16T08:31:33.449Z,2.80
2023-05-16T08:34:01.899Z,11.90
2023-05-16T08:36:28.906Z,2.90
2023-05-16T08:38:55.859Z,2.70
2023-05-16T08:41:22.915Z,2.80
2023-05-16T08:43:50.013Z,2.40
2023-05-16T08:46:17.579Z,2.60
2023-05-16T08:48:45.050Z,2.50
2023-05-16T08:51:12.073Z,2.70
2023-05-16T08:53:41.293Z,2.50
2023-05-16T08:56:08.252Z,2.60
2023-05-16T08:58:35.209Z,2.90
2023-05-16T09:01:04.512Z,3.20
2023-05-16T09:03:31.651Z,2.10
2023-05-16T09:05:58.631Z,3.00
2023-05-16T09:08:26.555Z,2.70
2023-05-16T09:10:53.996Z,3.10
2023-05-16T09:13:21.011Z,2.30
2023-05-16T09:15:48.168Z,2.90
2023-05-16T09:18:15.299Z,5.40
2023-05-16T09:20:47.196Z,3.90
2023-05-16T09:23:14.116Z,3.40
2023-05-16T09:25:41.895Z,4.20
2023-05-16T09:28:10.567Z,2.90
2023-05-16T09:30:39.733Z,10.30
2023-05-16T09:33:07.208Z,4.30
2023-05-16T09:38:04.031Z,2.70
2023-05-16T09:40:31.082Z,3.10
2023-05-16T09:43:05.081Z,2.70
2023-05-16T09:45:32.568Z,2.30
2023-05-16T09:48:04.465Z,2.60
2023-05-16T09:50:33.004Z,2.90
2023-05-16T09:53:00.105Z,2.60
2023-05-16T09:58:08.048Z,2.80
2023-05-16T10:00:35.290Z,3.00
2023-05-16T10:03:05.379Z,2.50
2023-05-16T10:05:33.262Z,5.40
2023-05-16T10:08:00.275Z,5.40
2023-05-16T10:10:27.319Z,4.60
2023-05-16T10:12:54.392Z,2.80
2023-05-16T10:15:22.069Z,2.60
2023-05-16T10:17:51.562Z,4.40
2023-05-16T10:20:18.609Z,4.50
2023-05-16T10:22:45.551Z,2.80
2023-05-16T10:25:17.969Z,3.80
2023-05-16T10:27:45.022Z,3.40
2023-05-16T10:30:12.149Z,3.40
2023-05-16T10:32:41.959Z,2.80
2023-05-16T10:35:10.086Z,2.70
2023-05-16T10:37:37.226Z,3.40
2023-05-16T10:40:06.206Z,2.80
2023-05-16T10:42:33.928Z,2.60
2023-05-16T10:45:30.796Z,2.80
2023-05-16T10:47:59.306Z,3.10
2023-05-16T10:50:33.639Z,2.70
2023-05-16T10:53:16.861Z,3.50
2023-05-16T10:55:52.035Z,44.30
2023-05-16T10:58:23.407Z,3.40
2023-05-16T11:00:50.605Z,3.20
2023-05-16T11:03:25.797Z,3.70
2023-05-16T11:05:54.512Z,3.00
2023-05-16T11:08:21.634Z,3.40
2023-05-16T11:10:48.797Z,2.90
2023-05-16T11:13:19.786Z,2.90
2023-05-16T11:15:46.795Z,4.60
2023-05-16T11:18:17.328Z,3.10
2023-05-16T11:20:44.394Z,3.90
2023-05-16T11:23:17.551Z,4.00
2023-05-16T11:26:02.834Z,3.70
2023-05-16T11:28:30.359Z,3.40
2023-05-16T11:30:58.228Z,3.00
2023-05-16T11:33:25.670Z,3.70
2023-05-16T11:36:14.582Z,2.80
2023-05-16T11:38:44.145Z,4.00
2023-05-16T11:41:11.829Z,3.50
2023-05-16T11:43:43.057Z,3.30
2023-05-16T11:46:14.732Z,4.20
2023-05-16T11:48:41.952Z,5.50
2023-05-16T11:51:09.602Z,2.00
2023-05-16T11:55:39.578Z,2.40
2023-05-16T11:58:08.440Z,1.90
2023-05-16T12:00:35.761Z,2.70
2023-05-16T12:03:04.995Z,2.90
2023-05-16T12:05:34.789Z,2.70
2023-05-16T12:08:03.047Z,2.40
2023-05-16T12:10:31.787Z,3.60
2023-05-16T12:12:58.995Z,2.20
2023-05-16T12:15:26.440Z,1.90
2023-05-16T12:17:53.759Z,2.70
2023-05-16T12:20:21.516Z,2.70
2023-05-16T12:22:48.678Z,2.40
2023-05-16T12:25:21.124Z,2.00
2023-05-16T12:27:49.363Z,3.40
2023-05-16T12:30:19.574Z,2.30
2023-05-16T12:32:47.621Z,1.80
2023-05-16T12:35:16.931Z,1.90
2023-05-16T12:37:44.016Z,2.00
2023-05-16T12:40:12.754Z,1.90
2023-05-16T12:42:39.797Z,2.00
2023-05-16T12:45:07.480Z,2.00
2023-05-16T12:47:40.781Z,1.90
2023-05-16T12:50:13.362Z,2.00
2023-05-16T12:52:53.420Z,1.70
2023-05-16T12:55:21.034Z,2.10
2023-05-16T12:57:48.378Z,2.00
2023-05-16T13:00:16.596Z,2.40
2023-05-16T13:02:43.914Z,2.70
2023-05-16T13:05:11.166Z,2.10
2023-05-16T13:07:41.090Z,2.10
2023-05-16T13:10:10.841Z,2.00
2023-05-16T13:12:38.598Z,2.70
2023-05-16T13:15:07.672Z,2.90
2023-05-16T13:17:35.309Z,3.00
2023-05-16T13:20:03.119Z,2.50
2023-05-16T13:22:30.132Z,2.80
2023-05-16T13:24:57.191Z,2.60
2023-05-16T13:27:24.648Z,7.10
2023-05-16T13:29:51.759Z,2.40
2023-05-16T13:32:19.196Z,1.90
2023-05-16T13:34:46.413Z,2.00
2023-05-16T13:37:13.424Z,2.10
2023-05-16T13:39:41.645Z,2.20
2023-05-16T13:42:08.586Z,2.50
2023-05-16T13:44:35.611Z,2.40
2023-05-16T13:47:03.057Z,2.10
2023-05-16T13:49:30.187Z,2.00
2023-05-16T13:51:58.893Z,2.10
2023-05-16T13:54:26.721Z,2.20
2023-05-16T13:56:53.762Z,2.10
2023-05-16T13:59:37.348Z,2.00
2023-05-16T14:02:10.231Z,2.10
2023-05-16T14:04:37.332Z,2.60
2023-05-16T14:07:04.552Z,2.10
2023-05-16T14:09:32.264Z,2.80
2023-05-16T14:11:59.345Z,2.30
2023-05-16T14:14:26.445Z,2.30
2023-05-16T14:16:53.499Z,2.80
2023-05-16T14:19:20.936Z,2.40
2023-05-16T14:21:48.041Z,2.10
2023-05-16T14:24:15.285Z,2.10
2023-05-16T14:26:42.542Z,2.80
2023-05-16T14:29:09.801Z,2.60
2023-05-16T14:31:36.973Z,2.60
2023-05-16T14:34:04.387Z,2.80
2023-05-16T14:36:32.027Z,2.70
2023-05-16T14:38:59.134Z,2.70
2023-05-16T14:41:26.809Z,3.00
2023-05-16T14:43:54.937Z,2.60
2023-05-16T14:46:21.989Z,2.80
2023-05-16T14:48:49.039Z,2.90
2023-05-16T14:51:16.789Z,2.60
2023-05-16T14:53:45.983Z,2.80
2023-05-16T14:56:13.737Z,2.80
2023-05-16T14:58:40.816Z,2.70
2023-05-16T15:01:07.887Z,2.80
2023-05-16T15:03:43.454Z,2.70
2023-05-16T15:06:14.239Z,2.70
2023-05-16T15:08:41.843Z,2.60
2023-05-16T15:11:09.180Z,2.90
2023-05-16T15:13:36.183Z,3.00
2023-05-16T15:16:03.980Z,33.20
2023-05-16T15:18:31.159Z,4.80
2023-05-16T15:20:58.114Z,4.40
2023-05-16T15:23:25.062Z,3.50
2023-05-16T15:25:52.630Z,3.20
2023-05-16T15:28:21.783Z,2.90
2023-05-16T15:30:50.822Z,3.40
2023-05-16T15:33:17.766Z,2.90
2023-05-16T15:35:44.706Z,3.40
2023-05-16T15:38:11.642Z,3.20
2023-05-16T15:40:38.921Z,3.10
2023-05-16T15:43:05.973Z,2.90
2023-05-16T15:45:33.093Z,3.10
2023-05-16T15:48:00.187Z,3.80
2023-05-16T15:50:27.390Z,3.40
2023-05-16T15:52:54.427Z,3.80
2023-05-16T15:55:22.143Z,3.80
2023-05-16T15:57:49.095Z,3.70
2023-05-16T16:00:16.475Z,3.70
2023-05-16T16:02:45.398Z,3.90
2023-05-16T16:05:12.530Z,4.10
2023-05-16T16:07:39.582Z,3.90
2023-05-16T16:10:06.978Z,4.10
2023-05-16T16:12:33.946Z,4.10
2023-05-16T16:15:02.792Z,4.90
2023-05-16T16:17:29.734Z,4.20
2023-05-16T16:19:57.026Z,3.80
2023-05-16T16:22:24.054Z,3.90
2023-05-16T16:24:50.969Z,3.70
2023-05-16T16:27:17.984Z,3.70
2023-05-16T16:29:45.382Z,3.80
2023-05-16T16:32:12.300Z,4.20
2023-05-16T16:34:39.591Z,3.90
2023-05-16T16:37:06.719Z,3.70
2023-05-16T16:39:33.714Z,3.80
2023-05-16T16:42:00.817Z,4.20
2023-05-16T16:44:27.820Z,4.30
2023-05-16T16:46:54.758Z,4.20
2023-05-16T16:49:21.730Z,4.80
2023-05-16T16:51:50.254Z,4.30
2023-05-16T16:54:17.210Z,5.20
2023-05-16T16:56:44.246Z,5.10
2023-05-16T16:59:11.929Z,4.60
2023-05-16T17:01:38.926Z,4.30
2023-05-16T17:04:06.199Z,4.50
2023-05-16T17:06:33.343Z,4.30
2023-05-16T17:09:05.741Z,4.30
2023-05-16T17:11:36.312Z,4.40
2023-05-16T17:14:05.894Z,4.20
2023-05-16T17:16:33.404Z,4.60
2023-05-16T17:19:00.612Z,4.10
2023-05-16T17:21:28.247Z,4.40
2023-05-16T17:23:58.221Z,4.50
2023-05-16T17:26:25.332Z,4.70
2023-05-16T17:28:52.359Z,4.90
2023-05-16T17:31:19.348Z,4.70
2023-05-16T17:33:46.352Z,4.70
2023-05-16T17:36:13.346Z,5.30
2023-05-16T17:38:40.325Z,5.90
2023-05-16T17:41:07.330Z,5.40
2023-05-16T17:43:34.247Z,5.30
2023-05-16T17:46:01.335Z,5.70
2023-05-16T17:48:28.280Z,5.60
2023-05-16T17:50:55.257Z,5.60
2023-05-16T17:53:22.253Z,5.50
2023-05-16T17:55:49.925Z,6.00
2023-05-16T17:58:18.243Z,5.60
2023-05-16T18:00:46.891Z,6.70
2023-05-16T18:03:14.038Z,5.60
2023-05-16T18:05:41.053Z,5.60
2023-05-16T18:08:08.715Z,5.10
2023-05-16T18:10:50.472Z,6.10
2023-05-16T18:13:18.494Z,5.10
2023-05-16T18:15:45.926Z,4.60
2023-05-16T18:18:13.054Z,4.80
2023-05-16T18:20:41.249Z,4.90
2023-05-16T18:23:08.814Z,4.50
2023-05-16T18:25:35.881Z,4.70
2023-05-16T18:28:03.491Z,5.70
2023-05-16T18:30:31.053Z,6.10
2023-05-16T18:32:58.347Z,7.00
2023-05-16T18:35:27.772Z,7.60
2023-05-16T18:37:55.032Z,8.00
2023-05-16T18:40:22.868Z,6.80
2023-05-16T18:42:50.289Z,7.50
2023-05-16T18:45:17.656Z,9.00
2023-05-16T18:47:44.973Z,9.70
2023-05-16T18:50:12.589Z,8.40
2023-05-16T18:52:40.861Z,9.50
2023-05-16T18:55:07.965Z,10.00
2023-05-16T18:57:35.076Z,10.60
2023-05-16T19:00:02.125Z,11.30
2023-05-16T19:02:41.021Z,12.80
2023-05-16T19:05:10.019Z,14.40
2023-05-16T19:07:37.091Z,14.10
2023-05-16T19:10:04.482Z,12.20
2023-05-16T19:12:31.609Z,13.20
2023-05-16T19:14:58.599Z,11.60
2023-05-16T19:17:25.866Z,12.60
2023-05-16T19:19:52.992Z,11.60
2023-05-16T19:22:19.995Z,12.00
2023-05-16T19:24:47.030Z,12.40
2023-05-16T19:27:14.172Z,11.50
2023-05-16T19:29:41.396Z,10.30
2023-05-16T19:32:08.361Z,11.80
2023-05-16T19:34:35.593Z,12.10
2023-05-16T19:37:03.561Z,12.30
2023-05-16T19:39:32.197Z,11.90
2023-05-16T19:42:06.700Z,11.70
2023-05-16T19:44:34.888Z,10.10
2023-05-16T19:47:01.926Z,9.20
2023-05-16T19:49:30.764Z,10.00
2023-05-16T19:51:57.696Z,8.90
2023-05-16T19:54:24.722Z,7.80
2023-05-16T19:56:51.646Z,8.20
2023-05-16T19:59:18.699Z,7.50
2023-05-16T20:01:46.134Z,8.10
2023-05-16T20:04:13.242Z,7.90
2023-05-16T20:06:40.270Z,8.20
2023-05-16T20:09:07.758Z,8.00
2023-05-16T20:11:35.738Z,7.40
2023-05-16T20:14:02.833Z,7.40
2023-05-16T20:16:29.869Z,7.30
2023-05-16T20:18:56.859Z,6.90
2023-05-16T20:21:23.878Z,6.20
2023-05-16T20:23:51.030Z,6.70
2023-05-16T20:26:17.987Z,6.20
2023-05-16T20:28:44.899Z,6.00
2023-05-16T20:31:11.869Z,5.70
2023-05-16T20:33:38.905Z,5.30
2023-05-16T20:36:05.998Z,5.50
2023-05-16T20:38:32.943Z,5.60
2023-05-16T20:40:59.938Z,6.30
2023-05-16T20:43:27.030Z,5.90
2023-05-16T20:45:54.167Z,6.20
2023-05-16T20:48:21.609Z,6.40
2023-05-16T20:50:48.581Z,6.50
2023-05-16T20:53:15.843Z,7.20
2023-05-16T20:55:42.761Z,7.00
2023-05-16T20:58:09.641Z,7.60
2023-05-16T21:00:36.630Z,7.50
2023-05-16T21:03:03.578Z,6.70
2023-05-16T21:05:30.622Z,6.50
2023-05-16T21:07:57.710Z,7.00
2023-05-16T21:10:24.609Z,7.20
2023-05-16T21:12:51.593Z,6.60
2023-05-16T21:15:19.410Z,6.70
2023-05-16T21:17:47.472Z,7.80
2023-05-16T21:20:14.421Z,8.30
2023-05-16T21:22:41.620Z,8.50
2023-05-16T21:25:08.834Z,7.60
2023-05-16T21:27:36.021Z,8.70
2023-05-16T21:30:03.282Z,7.50
2023-05-16T21:32:32.568Z,7.50
2023-05-16T21:35:01.260Z,6.90
2023-05-16T21:37:28.363Z,6.50
2023-05-16T21:39:55.248Z,5.10
2023-05-16T21:42:22.101Z,5.10
2023-05-16T21:44:49.015Z,5.40
2023-05-16T21:47:15.880Z,6.00
2023-05-16T21:49:43.154Z,7.50
2023-05-16T21:52:10.079Z,10.50
2023-05-16T21:54:37.019Z,13.70
2023-05-16T21:57:04.061Z,16.70
2023-05-16T21:59:31.070Z,19.10
2023-05-16T22:01:57.918Z,20.10
2023-05-16T22:04:24.926Z,19.70
2023-05-16T22:06:51.919Z,19.90
2023-05-16T22:09:18.858Z,20.50
2023-05-16T22:11:45.988Z,14.60
2023-05-16T22:14:13.146Z,9.90
2023-05-16T22:16:40.080Z,8.30
2023-05-16T22:19:07.113Z,5.70
2023-05-16T22:21:34.105Z,6.10
2023-05-16T22:24:01.010Z,5.40
2023-05-16T22:26:27.836Z,5.30
2023-05-16T22:28:54.846Z,5.00
2023-05-16T22:31:21.957Z,5.10
2023-05-16T22:33:48.922Z,4.90
2023-05-16T22:36:18.956Z,5.20
2023-05-16T22:38:45.869Z,4.80
2023-05-16T22:41:12.722Z,5.00
2023-05-16T22:43:39.717Z,5.20
2023-05-16T22:46:06.608Z,5.20
2023-05-16T22:48:33.563Z,4.80
2023-05-16T22:51:02.161Z,4.80
2023-05-16T22:53:29.392Z,4.90
2023-05-16T22:55:56.255Z,4.50
2023-05-16T22:58:23.305Z,4.70
2023-05-16T23:00:50.297Z,5.00
2023-05-16T23:03:17.309Z,4.70
2023-05-16T23:05:44.455Z,4.90
2023-05-16T23:08:11.594Z,4.60
2023-05-16T23:10:38.481Z,5.30
2023-05-16T23:13:05.407Z,5.00
2023-05-16T23:15:32.260Z,5.50
2023-05-16T23:17:59.240Z,4.80
2023-05-16T23:20:26.266Z,4.80
2023-05-16T23:22:53.145Z,5.00
2023-05-16T23:25:20.061Z,4.90
2023-05-16T23:27:47.065Z,4.70
2023-05-16T23:30:14.212Z,5.40
2023-05-16T23:32:41.165Z,4.80
2023-05-16T23:35:08.375Z,5.20
2023-05-16T23:37:35.245Z,5.00
2023-05-16T23:40:02.089Z,5.10
2023-05-16T23:42:29.031Z,4.60
2023-05-16T23:44:55.889Z,4.90
2023-05-16T23:47:23.283Z,4.80
2023-05-16T23:49:50.360Z,5.10
2023-05-16T23:52:17.237Z,5.90
2023-05-16T23:54:45.503Z,5.30
2023-05-16T23:57:12.466Z,5.00
2023-05-16T23:59:40.035Z,5.60
